createdAt,value
2019-04-01T00:00:50.154Z,1022.59
2019-04-01T00:01:50.167Z,1022.56
2019-04-01T00:02:50.181Z,1022.58
2019-04-01T00:03:50.200Z,1022.59
2019-04-01T00:04:50.213Z,1022.59
2019-04-01T00:06:50.242Z,1022.61
2019-04-01T00:07:50.253Z,1022.65
2019-04-01T00:08:50.266Z,1022.69
2019-04-01T00:09:50.285Z,1022.63
2019-04-01T00:10:50.295Z,1022.69
2019-04-01T00:11:50.315Z,1022.69
2019-04-01T00:12:50.323Z,1022.67
2019-04-01T00:13:50.341Z,1022.69
2019-04-01T00:14:50.352Z,1022.67
2019-04-01T00:15:50.385Z,1022.66
2019-04-01T00:16:50.387Z,1022.66
2019-04-01T00:17:50.399Z,1022.68
2019-04-01T00:19:02.262Z,1022.65
2019-04-01T00:19:50.425Z,1022.67
2019-04-01T00:20:50.442Z,1022.7
2019-04-01T00:22:50.627Z,1022.72
2019-04-01T00:23:50.483Z,1022.71
2019-04-01T00:24:50.493Z,1022.7
2019-04-01T00:25:50.506Z,1022.66
2019-04-01T00:26:50.527Z,1022.63
2019-04-01T00:27:50.542Z,1022.61
2019-04-01T00:28:50.554Z,1022.64
2019-04-01T00:29:50.569Z,1022.61
2019-04-01T00:30:50.582Z,1022.63
2019-04-01T00:31:50.590Z,1022.61
2019-04-01T00:32:50.606Z,1022.6
2019-04-01T00:33:50.624Z,1022.57
2019-04-01T00:34:50.638Z,1022.6
2019-04-01T00:35:50.652Z,1022.59
2019-04-01T00:36:50.662Z,1022.59
2019-04-01T00:38:50.729Z,1022.66
2019-04-01T00:39:50.703Z,1022.65
2019-04-01T00:40:50.717Z,1022.64
2019-04-01T00:41:50.735Z,1022.64
2019-04-01T00:42:50.749Z,1022.63
2019-04-01T00:43:50.760Z,1022.64
2019-04-01T00:44:50.777Z,1022.65
2019-04-01T00:45:50.786Z,1022.63
2019-04-01T00:46:50.806Z,1022.65
2019-04-01T00:47:50.815Z,1022.66
2019-04-01T00:48:50.832Z,1022.67
2019-04-01T00:49:50.847Z,1022.64
2019-04-01T00:50:50.856Z,1022.65
2019-04-01T00:51:50.871Z,1022.68
2019-04-01T00:52:50.892Z,1022.69
2019-04-01T00:54:50.916Z,1022.68
2019-04-01T00:55:50.926Z,1022.66
2019-04-01T00:56:50.943Z,1022.67
2019-04-01T00:57:50.953Z,1022.67
2019-04-01T00:58:50.979Z,1022.69
2019-04-01T00:59:50.985Z,1022.67
2019-04-01T01:00:50.999Z,1022.65
2019-04-01T01:01:51.009Z,1022.64
2019-04-01T01:02:51.027Z,1022.65
2019-04-01T01:03:51.039Z,1022.65
2019-04-01T01:04:51.051Z,1022.63
2019-04-01T01:05:51.067Z,1022.64
2019-04-01T01:06:51.077Z,1022.66
2019-04-01T01:07:51.095Z,1022.66
2019-04-01T01:09:51.119Z,1022.61
2019-04-01T01:10:51.136Z,1022.61
2019-04-01T01:11:51.146Z,1022.6
2019-04-01T01:12:51.164Z,1022.65
2019-04-01T01:13:51.174Z,1022.66
2019-04-01T01:14:51.191Z,1022.65
2019-04-01T01:15:51.200Z,1022.63
2019-04-01T01:16:51.214Z,1022.66
2019-04-01T01:17:51.230Z,1022.66
2019-04-01T01:18:51.249Z,1022.69
2019-04-01T01:19:51.256Z,1022.67
2019-04-01T01:20:51.273Z,1022.66
2019-04-01T01:21:51.282Z,1022.67
2019-04-01T01:22:51.301Z,1022.67
2019-04-01T01:23:51.320Z,1022.66
2019-04-01T01:24:51.324Z,1022.68
2019-04-01T01:25:51.342Z,1022.7
2019-04-01T01:26:51.351Z,1022.66
2019-04-01T01:27:51.368Z,1022.68
2019-04-01T01:28:51.377Z,1022.71
2019-04-01T01:29:51.395Z,1022.69
2019-04-01T01:30:51.410Z,1022.68
2019-04-01T01:31:51.422Z,1022.68
2019-04-01T01:32:51.431Z,1022.66
2019-04-01T01:33:51.449Z,1022.63
2019-04-01T01:34:51.459Z,1022.62
2019-04-01T01:35:51.479Z,1022.63
2019-04-01T01:36:51.485Z,1022.65
2019-04-01T01:37:51.503Z,1022.69
2019-04-01T01:38:51.512Z,1022.7
2019-04-01T01:39:51.529Z,1022.71
2019-04-01T01:41:51.555Z,1022.65
2019-04-01T01:42:51.570Z,1022.68
2019-04-01T01:43:51.580Z,1022.69
2019-04-01T01:44:51.597Z,1022.67
2019-04-01T01:45:51.606Z,1022.72
2019-04-01T01:46:51.623Z,1022.72
2019-04-01T01:47:51.632Z,1022.75
2019-04-01T01:48:51.650Z,1022.73
2019-04-01T01:49:51.663Z,1022.76
2019-04-01T01:50:51.733Z,1022.71
2019-04-01T01:51:51.687Z,1022.71
2019-04-01T01:52:51.703Z,1022.69
2019-04-01T01:53:51.713Z,1022.71
2019-04-01T01:54:51.725Z,1022.69
2019-04-01T01:55:51.744Z,1022.73
2019-04-01T01:57:51.772Z,1022.8
2019-04-01T01:58:51.780Z,1022.78
2019-04-01T01:59:51.796Z,1022.83
2019-04-01T02:00:51.806Z,1022.81
2019-04-01T02:01:51.826Z,1022.79
2019-04-01T02:02:51.832Z,1022.82
2019-04-01T02:03:51.849Z,1022.84
2019-04-01T02:04:51.864Z,1022.83
2019-04-01T02:05:51.871Z,1022.86
2019-04-01T02:06:51.885Z,1022.85
2019-04-01T02:07:51.898Z,1022.81
2019-04-01T02:08:51.918Z,1022.83
2019-04-01T02:09:51.924Z,1022.82
2019-04-01T02:10:51.943Z,1022.83
2019-04-01T02:11:51.956Z,1022.83
2019-04-01T02:13:51.981Z,1022.79
2019-04-01T02:14:51.991Z,1022.81
2019-04-01T02:15:52.008Z,1022.8
2019-04-01T02:16:52.020Z,1022.84
2019-04-01T02:17:52.030Z,1022.81
2019-04-01T02:18:52.045Z,1022.85
2019-04-01T02:19:52.060Z,1022.83
2019-04-01T02:20:52.073Z,1022.81
2019-04-01T02:21:52.142Z,1022.83
2019-04-01T02:22:52.096Z,1022.83
2019-04-01T02:23:52.114Z,1022.81
2019-04-01T02:24:52.121Z,1022.81
2019-04-01T02:25:52.139Z,1022.84
2019-04-01T02:26:52.148Z,1022.84
2019-04-01T02:27:52.165Z,1022.81
2019-04-01T02:29:52.187Z,1022.8
2019-04-01T02:30:52.206Z,1022.81
2019-04-01T02:31:52.214Z,1022.84
2019-04-01T02:32:52.331Z,1022.87
2019-04-01T02:33:52.265Z,1022.89
2019-04-01T02:34:52.257Z,1022.84
2019-04-01T02:35:52.266Z,1022.86
2019-04-01T02:36:52.285Z,1022.81
2019-04-01T02:37:52.292Z,1022.87
2019-04-01T02:38:52.305Z,1022.83
2019-04-01T02:39:52.323Z,1022.84
2019-04-01T02:40:52.336Z,1022.84
2019-04-01T02:41:52.345Z,1022.83
2019-04-01T02:42:52.361Z,1022.88
2019-04-01T02:44:52.389Z,1022.84
2019-04-01T02:45:52.402Z,1022.81
2019-04-01T02:46:52.410Z,1022.85
2019-04-01T02:47:52.423Z,1022.89
2019-04-01T02:48:52.435Z,1022.92
2019-04-01T02:49:52.453Z,1022.84
2019-04-01T02:50:52.461Z,1022.85
2019-04-01T02:51:52.480Z,1022.81
2019-04-01T02:52:52.486Z,1022.83
2019-04-01T02:53:52.507Z,1022.86
2019-04-01T02:54:52.518Z,1022.88
2019-04-01T02:55:52.527Z,1022.92
2019-04-01T02:56:52.543Z,1022.93
2019-04-01T02:57:52.556Z,1022.86
2019-04-01T02:58:52.570Z,1022.83
2019-04-01T02:59:52.585Z,1022.81
2019-04-01T03:00:52.595Z,1022.84
2019-04-01T03:01:52.609Z,1022.86
2019-04-01T03:02:52.621Z,1022.87
2019-04-01T03:03:52.631Z,1022.85
2019-04-01T03:04:52.667Z,1022.88
2019-04-01T03:05:52.654Z,1022.93
2019-04-01T03:06:52.675Z,1022.9
2019-04-01T03:07:52.682Z,1022.88
2019-04-01T03:08:52.697Z,1022.91
2019-04-01T03:09:52.709Z,1022.89
2019-04-01T03:10:52.719Z,1022.92
2019-04-01T03:11:52.732Z,1022.9
2019-04-01T03:12:52.751Z,1022.87
2019-04-01T03:13:52.761Z,1022.89
2019-04-01T03:14:52.773Z,1022.88
2019-04-01T03:16:52.800Z,1022.93
2019-04-01T03:17:52.809Z,1022.96
2019-04-01T03:18:52.821Z,1022.92
2019-04-01T03:19:52.842Z,1022.94
2019-04-01T03:20:52.862Z,1022.93
2019-04-01T03:21:52.860Z,1022.87
2019-04-01T03:22:52.878Z,1022.92
2019-04-01T03:23:52.884Z,1022.91
2019-04-01T03:24:52.901Z,1022.9
2019-04-01T03:25:52.916Z,1022.89
2019-04-01T03:26:52.927Z,1022.92
2019-04-01T03:27:52.935Z,1022.89
2019-04-01T03:28:52.950Z,1022.93
2019-04-01T03:29:52.965Z,1022.94
2019-04-01T03:30:52.976Z,1022.9
2019-04-01T03:32:53.005Z,1022.89
2019-04-01T03:33:53.019Z,1022.88
2019-04-01T03:34:53.023Z,1022.88
2019-04-01T03:35:53.041Z,1022.87
2019-04-01T03:36:53.049Z,1022.88
2019-04-01T03:37:53.069Z,1022.9
2019-04-01T03:38:53.075Z,1022.87
2019-04-01T03:39:53.151Z,1022.89
2019-04-01T03:40:53.099Z,1022.9
2019-04-01T03:41:53.116Z,1022.87
2019-04-01T03:42:53.137Z,1022.91
2019-04-01T03:43:53.142Z,1022.88
2019-04-01T03:44:55.223Z,1022.88
2019-04-01T03:45:53.163Z,1022.88
2019-04-01T03:46:53.180Z,1022.88
2019-04-01T03:48:53.204Z,1022.93
2019-04-01T03:49:53.223Z,1022.88
2019-04-01T03:50:53.231Z,1022.88
2019-04-01T03:51:53.237Z,1022.9
2019-04-01T03:52:53.260Z,1022.87
2019-04-01T03:53:53.266Z,1022.86
2019-04-01T03:54:53.279Z,1022.89
2019-04-01T03:55:53.291Z,1022.85
2019-04-01T03:56:53.303Z,1022.92
2019-04-01T03:57:53.318Z,1022.93
2019-04-01T03:58:53.332Z,1022.89
2019-04-01T03:59:53.343Z,1022.84
2019-04-01T04:00:53.351Z,1022.84
2019-04-01T04:01:53.369Z,1022.83
2019-04-01T04:02:53.378Z,1022.85
2019-04-01T04:04:53.404Z,1022.88
2019-04-01T04:05:53.416Z,1022.84
2019-04-01T04:06:53.429Z,1022.84
2019-04-01T04:07:53.441Z,1022.85
2019-04-01T04:08:53.450Z,1022.83
2019-04-01T04:09:53.468Z,1022.84
2019-04-01T04:10:53.474Z,1022.88
2019-04-01T04:11:53.495Z,1022.88
2019-04-01T04:12:53.509Z,1022.89
2019-04-01T04:13:53.516Z,1022.9
2019-04-01T04:14:53.525Z,1022.91
2019-04-01T04:15:53.536Z,1022.92
2019-04-01T04:16:53.555Z,1022.89
2019-04-01T04:17:53.568Z,1022.88
2019-04-01T04:19:53.591Z,1022.96
2019-04-01T04:20:53.603Z,1022.94
2019-04-01T04:21:53.612Z,1023.02
2019-04-01T04:22:53.625Z,1022.98
2019-04-01T04:23:53.645Z,1023.04
2019-04-01T04:24:53.654Z,1023.02
2019-04-01T04:25:53.670Z,1023.03
2019-04-01T04:26:53.675Z,1023.04
2019-04-01T04:27:53.692Z,1023.05
2019-04-01T04:28:53.700Z,1023.05
2019-04-01T04:29:53.752Z,1023.02
2019-04-01T04:30:53.727Z,1022.95
2019-04-01T04:31:53.742Z,1023
2019-04-01T04:32:53.749Z,1022.97
2019-04-01T04:33:53.865Z,1023.01
2019-04-01T04:34:57.149Z,1023.02
2019-04-01T04:35:53.801Z,1023.03
2019-04-01T04:36:53.797Z,1022.99
2019-04-01T04:37:53.815Z,1023.02
2019-04-01T04:38:53.821Z,1023.04
2019-04-01T04:39:53.834Z,1023
2019-04-01T04:40:53.847Z,1023.01
2019-04-01T04:41:53.967Z,1023.04
2019-04-01T04:42:53.876Z,1023.08
2019-04-01T04:43:53.884Z,1023.08
2019-04-01T04:44:53.901Z,1023.14
2019-04-01T04:45:53.910Z,1023.08
2019-04-01T04:46:53.921Z,1023.09
2019-04-01T04:47:53.938Z,1023.11
2019-04-01T04:48:53.952Z,1023.08
2019-04-01T04:49:53.963Z,1023.07
2019-04-01T04:51:53.988Z,1023.11
2019-04-01T04:52:53.995Z,1023.11
2019-04-01T04:53:54.011Z,1023.13
2019-04-01T04:54:54.020Z,1023.17
2019-04-01T04:55:54.036Z,1023.19
2019-04-01T04:56:54.045Z,1023.18
2019-04-01T04:57:54.057Z,1023.19
2019-04-01T04:58:54.074Z,1023.17
2019-04-01T04:59:54.086Z,1023.18
2019-04-01T05:00:54.108Z,1023.19
2019-04-01T05:01:54.106Z,1023.19
2019-04-01T05:02:54.119Z,1023.17
2019-04-01T05:03:54.137Z,1023.21
2019-04-01T05:04:54.143Z,1023.25
2019-04-01T05:05:54.161Z,1023.21
2019-04-01T05:07:54.181Z,1023.22
2019-04-01T05:08:54.198Z,1023.26
2019-04-01T05:09:54.205Z,1023.29
2019-04-01T05:10:54.218Z,1023.24
2019-04-01T05:11:54.231Z,1023.29
2019-04-01T05:12:54.340Z,1023.33
2019-04-01T05:13:54.260Z,1023.26
2019-04-01T05:14:54.269Z,1023.27
2019-04-01T05:15:54.280Z,1023.35
2019-04-01T05:16:54.296Z,1023.4
2019-04-01T05:17:54.311Z,1023.45
2019-04-01T05:18:54.319Z,1023.49
2019-04-01T05:19:54.335Z,1023.63
2019-04-01T05:20:54.346Z,1023.74
2019-04-01T05:21:54.367Z,1023.6
2019-04-01T05:23:54.390Z,1023.66
2019-04-01T05:24:54.399Z,1023.67
2019-04-01T05:25:54.418Z,1023.57
2019-04-01T05:26:54.428Z,1023.54
2019-04-01T05:27:54.448Z,1023.7
2019-04-01T05:28:54.458Z,1023.82
2019-04-01T05:29:54.477Z,1023.83
2019-04-01T05:30:54.491Z,1023.92
2019-04-01T05:31:54.502Z,1023.92
2019-04-01T05:32:54.518Z,1023.9
2019-04-01T05:33:55.464Z,1023.89
2019-04-01T05:34:54.553Z,1023.88
2019-04-01T05:35:54.666Z,1023.75
2019-04-01T05:36:54.587Z,1023.72
2019-04-01T05:37:54.600Z,1023.71
2019-04-01T05:39:54.634Z,1023.92
2019-04-01T05:40:54.652Z,1023.94
2019-04-01T05:41:54.675Z,1023.87
2019-04-01T05:42:54.686Z,1023.8
2019-04-01T05:43:54.707Z,1023.79
2019-04-01T05:44:54.720Z,1023.91
2019-04-01T05:45:54.742Z,1023.97
2019-04-01T05:46:54.756Z,1023.91
2019-04-01T05:47:54.774Z,1023.93
2019-04-01T05:48:54.791Z,1024.08
2019-04-01T05:49:54.815Z,1024.15
2019-04-01T05:50:54.828Z,1024.16
2019-04-01T05:51:54.851Z,1024.11
2019-04-01T05:52:54.865Z,1024.04
2019-04-01T05:54:54.909Z,1024.18
2019-04-01T05:55:54.923Z,1024.22
2019-04-01T05:56:54.948Z,1024.15
2019-04-01T05:57:54.963Z,1024.17
2019-04-01T05:58:54.988Z,1024.21
2019-04-01T05:59:55.003Z,1024.32
2019-04-01T06:00:55.031Z,1024.41
2019-04-01T06:01:55.049Z,1024.43
2019-04-01T06:02:55.065Z,1024.45
2019-04-01T06:03:55.087Z,1024.43
2019-04-01T06:04:55.109Z,1024.45
2019-04-01T06:05:55.135Z,1024.52
2019-04-01T06:06:55.153Z,1024.55
2019-04-01T06:07:55.181Z,1024.52
2019-04-01T06:08:55.203Z,1024.59
2019-04-01T06:09:55.223Z,1024.64
2019-04-01T06:10:55.249Z,1024.65
2019-04-01T06:11:55.298Z,1024.67
2019-04-01T06:12:55.298Z,1024.69
2019-04-01T06:13:55.316Z,1024.71
2019-04-01T06:14:55.345Z,1024.73
2019-04-01T06:15:55.370Z,1024.73
2019-04-01T06:16:55.391Z,1024.74
2019-04-01T06:17:55.414Z,1024.76
2019-04-01T06:18:55.450Z,1024.73
2019-04-01T06:19:55.465Z,1024.77
2019-04-01T06:20:55.496Z,1024.78
2019-04-01T06:21:55.515Z,1024.81
2019-04-01T06:22:55.545Z,1024.85
2019-04-01T06:23:55.566Z,1024.89
2019-04-01T06:24:55.595Z,1024.89
2019-04-01T06:26:55.644Z,1025
2019-04-01T06:27:55.674Z,1025.06
2019-04-01T06:28:55.696Z,1025.16
2019-04-01T06:29:58.981Z,1025.27
2019-04-01T06:30:55.757Z,1025.32
2019-04-01T06:31:55.780Z,1025.36
2019-04-01T06:32:55.807Z,1025.46
2019-04-01T06:33:55.830Z,1025.43
2019-04-01T06:34:55.862Z,1025.44
2019-04-01T06:35:55.910Z,1025.43
2019-04-01T06:36:55.915Z,1025.48
2019-04-01T06:37:55.938Z,1025.58
2019-04-01T06:38:55.970Z,1025.59
2019-04-01T06:39:56.093Z,1025.63
2019-04-01T06:40:56.025Z,1025.64
2019-04-01T06:42:56.076Z,1025.73
2019-04-01T06:43:56.107Z,1025.78
2019-04-01T06:44:56.131Z,1025.77
2019-04-01T06:45:56.164Z,1025.7
2019-04-01T06:46:56.192Z,1025.71
2019-04-01T06:47:56.215Z,1025.8
2019-04-01T06:48:56.247Z,1025.84
2019-04-01T06:49:56.277Z,1025.86
2019-04-01T06:50:56.300Z,1025.92
2019-04-01T06:51:56.335Z,1026
2019-04-01T06:52:56.357Z,1025.97
2019-04-01T06:53:56.390Z,1025.99
2019-04-01T06:54:56.415Z,1025.93
2019-04-01T06:55:56.447Z,1025.94
2019-04-01T06:56:56.558Z,1025.89
2019-04-01T06:58:56.534Z,1025.93
2019-04-01T06:59:56.562Z,1025.91
2019-04-01T07:00:56.587Z,1025.85
2019-04-01T07:01:56.619Z,1025.85
2019-04-01T07:02:56.645Z,1025.8
2019-04-01T07:03:56.675Z,1025.79
2019-04-01T07:04:56.703Z,1025.79
2019-04-01T07:05:56.735Z,1025.76
2019-04-01T07:06:56.774Z,1025.76
2019-04-01T07:07:56.796Z,1025.72
2019-04-01T07:08:56.818Z,1025.73
2019-04-01T07:09:56.849Z,1025.75
2019-04-01T07:10:56.891Z,1025.67
2019-04-01T07:11:56.906Z,1025.64
2019-04-01T07:12:56.939Z,1025.66
2019-04-01T07:14:57.004Z,1025.67
2019-04-01T07:15:57.023Z,1025.66
2019-04-01T07:16:57.055Z,1025.65
2019-04-01T07:17:57.080Z,1025.69
2019-04-01T07:18:57.115Z,1025.66
2019-04-01T07:19:57.138Z,1025.63
2019-04-01T07:20:57.171Z,1025.68
2019-04-01T07:21:57.198Z,1025.6
2019-04-01T07:22:57.232Z,1025.58
2019-04-01T07:23:57.260Z,1025.58
2019-04-01T07:24:57.288Z,1025.52
2019-04-01T07:25:57.313Z,1025.49
2019-04-01T07:26:57.343Z,1025.49
2019-04-01T07:27:57.377Z,1025.49
2019-04-01T07:29:57.436Z,1025.45
2019-04-01T07:30:57.466Z,1025.47
2019-04-01T07:31:57.493Z,1025.45
2019-04-01T07:32:57.525Z,1025.38
2019-04-01T07:33:57.550Z,1025.35
2019-04-01T07:34:57.579Z,1025.32
2019-04-01T07:35:57.613Z,1025.38
2019-04-01T07:36:57.642Z,1025.29
2019-04-01T07:37:57.670Z,1025.27
2019-04-01T07:38:57.695Z,1025.32
2019-04-01T07:39:57.729Z,1025.24
2019-04-01T07:40:59.276Z,1025.21
2019-04-01T07:41:57.783Z,1025.22
2019-04-01T07:42:57.816Z,1025.14
2019-04-01T07:43:57.841Z,1025.07
2019-04-01T07:44:57.875Z,1025.05
2019-04-01T07:45:59.974Z,1025.09
2019-04-01T07:46:57.931Z,1025.04
2019-04-01T07:47:57.960Z,1024.99
2019-04-01T07:48:58.017Z,1025.03
2019-04-01T07:49:58.041Z,1025.03
2019-04-01T07:50:58.052Z,1025.06
2019-04-01T07:51:58.075Z,1025.06
2019-04-01T07:52:58.099Z,1025.01
2019-04-01T07:53:58.131Z,1025.03
2019-04-01T07:54:58.155Z,1025.02
2019-04-01T07:55:58.188Z,1024.95
2019-04-01T07:56:58.211Z,1024.94
2019-04-01T07:57:59.782Z,1024.83
2019-04-01T07:58:58.267Z,1024.87
2019-04-01T07:59:58.302Z,1024.8
2019-04-01T08:01:58.350Z,1024.77
2019-04-01T08:02:58.383Z,1024.68
2019-04-01T08:03:58.407Z,1024.69
2019-04-01T08:04:58.437Z,1024.67
2019-04-01T08:05:58.461Z,1024.66
2019-04-01T08:06:58.495Z,1024.67
2019-04-01T08:07:58.519Z,1024.7
2019-04-01T08:08:58.542Z,1024.72
2019-04-01T08:09:58.577Z,1024.71
2019-04-01T08:10:58.602Z,1024.72
2019-04-01T08:11:58.629Z,1024.73
2019-04-01T08:12:58.652Z,1024.69
2019-04-01T08:13:58.681Z,1024.71
2019-04-01T08:14:58.709Z,1024.67
2019-04-01T08:15:58.736Z,1024.67
2019-04-01T08:17:58.792Z,1024.69
2019-04-01T08:18:58.819Z,1024.64
2019-04-01T08:19:58.840Z,1024.69
2019-04-01T08:20:58.866Z,1024.69
2019-04-01T08:21:58.892Z,1024.69
2019-04-01T08:22:58.923Z,1024.65
2019-04-01T08:23:59.051Z,1024.65
2019-04-01T08:24:58.972Z,1024.62
2019-04-01T08:25:59.002Z,1024.59
2019-04-01T08:26:59.026Z,1024.56
2019-04-01T08:27:59.055Z,1024.56
2019-04-01T08:28:59.077Z,1024.58
2019-04-01T08:29:59.108Z,1024.62
2019-04-01T08:30:59.135Z,1024.56
2019-04-01T08:31:59.156Z,1024.53
2019-04-01T08:33:59.211Z,1024.5
2019-04-01T08:34:59.235Z,1024.55
2019-04-01T08:35:59.265Z,1024.55
2019-04-01T08:36:59.287Z,1024.57
2019-04-01T08:37:59.314Z,1024.56
2019-04-01T08:38:59.340Z,1024.53
2019-04-01T08:39:59.370Z,1024.57
2019-04-01T08:40:59.396Z,1024.51
2019-04-01T08:41:59.417Z,1024.51
2019-04-01T08:42:59.447Z,1024.54
2019-04-01T08:44:02.892Z,1024.58
2019-04-01T08:44:59.501Z,1024.55
2019-04-01T08:45:59.522Z,1024.56
2019-04-01T08:46:59.549Z,1024.55
2019-04-01T08:47:59.579Z,1024.6
2019-04-01T08:49:59.630Z,1024.57
2019-04-01T08:50:59.656Z,1024.52
2019-04-01T08:51:59.677Z,1024.49
2019-04-01T08:52:59.702Z,1024.49
2019-04-01T08:53:59.732Z,1024.52
2019-04-01T08:54:59.768Z,1024.54
2019-04-01T08:56:00.727Z,1024.51
2019-04-01T08:56:59.810Z,1024.48
2019-04-01T08:57:59.838Z,1024.48
2019-04-01T08:58:59.924Z,1024.46
2019-04-01T08:59:59.883Z,1024.4
2019-04-01T09:00:59.913Z,1024.53
2019-04-01T09:01:59.935Z,1024.46
2019-04-01T09:02:59.966Z,1024.47
2019-04-01T09:05:00.013Z,1024.49
2019-04-01T09:06:00.215Z,1024.54
2019-04-01T09:07:00.067Z,1024.48
2019-04-01T09:08:00.094Z,1024.43
2019-04-01T09:09:00.114Z,1024.45
2019-04-01T09:10:00.243Z,1024.45
2019-04-01T09:11:00.165Z,1024.36
2019-04-01T09:12:00.194Z,1024.41
2019-04-01T09:13:00.215Z,1024.4
2019-04-01T09:14:00.248Z,1024.42
2019-04-01T09:15:00.388Z,1024.46
2019-04-01T09:16:00.293Z,1024.39
2019-04-01T09:17:00.321Z,1024.37
2019-04-01T09:18:00.342Z,1024.37
2019-04-01T09:19:00.367Z,1024.35
2019-04-01T09:20:00.444Z,1024.33
2019-04-01T09:21:00.422Z,1024.34
2019-04-01T09:22:00.447Z,1024.29
2019-04-01T09:23:00.470Z,1024.3
2019-04-01T09:24:00.497Z,1024.36
2019-04-01T09:25:00.519Z,1024.33
2019-04-01T09:26:00.549Z,1024.28
2019-04-01T09:27:00.569Z,1024.24
2019-04-01T09:28:00.597Z,1024.25
2019-04-01T09:29:00.621Z,1024.24
2019-04-01T09:30:00.648Z,1024.21
2019-04-01T09:31:00.670Z,1024.2
2019-04-01T09:32:00.697Z,1024.29
2019-04-01T09:33:00.719Z,1024.19
2019-04-01T09:34:00.749Z,1024.21
2019-04-01T09:35:00.768Z,1024.2
2019-04-01T09:37:00.823Z,1024.23
2019-04-01T09:38:00.848Z,1024.24
2019-04-01T09:39:00.878Z,1024.23
2019-04-01T09:40:00.892Z,1024.2
2019-04-01T09:41:00.922Z,1024.18
2019-04-01T09:42:00.942Z,1024.21
2019-04-01T09:43:00.972Z,1024.19
2019-04-01T09:44:00.991Z,1024.21
2019-04-01T09:45:01.019Z,1024.14
2019-04-01T09:46:01.044Z,1024.18
2019-04-01T09:47:01.065Z,1024.13
2019-04-01T09:48:01.093Z,1024.15
2019-04-01T09:49:01.114Z,1024.12
2019-04-01T09:50:01.149Z,1024.12
2019-04-01T09:51:01.164Z,1024.18
2019-04-01T09:53:01.217Z,1024.09
2019-04-01T09:54:01.240Z,1024.08
2019-04-01T09:55:01.271Z,1024.1
2019-04-01T09:56:01.290Z,1024.03
2019-04-01T09:57:16.087Z,1024.01
2019-04-01T09:58:01.339Z,1024.01
2019-04-01T09:59:01.359Z,1023.95
2019-04-01T10:00:01.387Z,1023.97
2019-04-01T10:01:01.407Z,1023.9
2019-04-01T10:02:01.438Z,1023.88
2019-04-01T10:03:01.457Z,1023.93
2019-04-01T10:04:01.547Z,1023.95
2019-04-01T10:05:01.504Z,1023.9
2019-04-01T10:06:01.529Z,1023.87
2019-04-01T10:07:01.561Z,1023.86
2019-04-01T10:09:01.606Z,1023.84
2019-04-01T10:10:01.656Z,1023.87
2019-04-01T10:11:01.655Z,1023.87
2019-04-01T10:12:01.673Z,1023.81
2019-04-01T10:13:01.698Z,1023.86
2019-04-01T10:14:01.811Z,1023.81
2019-04-01T10:15:01.757Z,1023.74
2019-04-01T10:16:01.775Z,1023.74
2019-04-01T10:17:01.794Z,1023.75
2019-04-01T10:18:01.824Z,1023.81
2019-04-01T10:19:01.843Z,1023.77
2019-04-01T10:20:01.866Z,1023.8
2019-04-01T10:21:01.904Z,1023.71
2019-04-01T10:22:01.915Z,1023.74
2019-04-01T10:23:01.939Z,1023.75
2019-04-01T10:25:01.987Z,1023.78
2019-04-01T10:26:02.016Z,1023.68
2019-04-01T10:27:02.038Z,1023.64
2019-04-01T10:28:02.064Z,1023.63
2019-04-01T10:29:02.082Z,1023.59
2019-04-01T10:30:02.135Z,1023.6
2019-04-01T10:31:02.133Z,1023.62
2019-04-01T10:32:02.157Z,1023.56
2019-04-01T10:33:02.700Z,1023.6
2019-04-01T10:34:02.199Z,1023.62
2019-04-01T10:35:02.280Z,1023.55
2019-04-01T10:36:02.247Z,1023.49
2019-04-01T10:37:02.275Z,1023.51
2019-04-01T10:38:02.297Z,1023.49
2019-04-01T10:40:02.343Z,1023.51
2019-04-01T10:41:02.370Z,1023.56
2019-04-01T10:42:02.388Z,1023.55
2019-04-01T10:43:02.416Z,1023.53
2019-04-01T10:44:04.819Z,1023.54
2019-04-01T10:45:02.457Z,1023.54
2019-04-01T10:46:02.483Z,1023.57
2019-04-01T10:47:02.583Z,1023.46
2019-04-01T10:48:02.565Z,1023.49
2019-04-01T10:49:02.567Z,1023.47
2019-04-01T10:50:02.602Z,1023.43
2019-04-01T10:51:02.651Z,1023.37
2019-04-01T10:52:02.626Z,1023.4
2019-04-01T10:53:02.666Z,1023.34
2019-04-01T10:54:02.673Z,1023.36
2019-04-01T10:55:02.814Z,1023.33
2019-04-01T10:56:02.746Z,1023.4
2019-04-01T10:57:02.727Z,1023.33
2019-04-01T10:58:02.788Z,1023.41
2019-04-01T10:59:02.771Z,1023.29
2019-04-01T11:00:02.914Z,1023.26
2019-04-01T11:01:02.818Z,1023.26
2019-04-01T11:02:02.845Z,1023.26
2019-04-01T11:03:05.883Z,1023.26
2019-04-01T11:04:02.903Z,1023.21
2019-04-01T11:05:02.921Z,1023.2
2019-04-01T11:06:02.923Z,1023.23
2019-04-01T11:07:03.023Z,1023.21
2019-04-01T11:08:02.996Z,1023.19
2019-04-01T11:09:03.017Z,1023.18
2019-04-01T11:10:03.009Z,1023.14
2019-04-01T11:12:03.057Z,1023.14
2019-04-01T11:13:03.172Z,1023.14
2019-04-01T11:14:03.098Z,1023.16
2019-04-01T11:15:03.118Z,1023.17
2019-04-01T11:16:03.141Z,1023.12
2019-04-01T11:17:04.437Z,1023.14
2019-04-01T11:18:03.183Z,1023.12
2019-04-01T11:19:03.200Z,1023.05
2019-04-01T11:20:03.223Z,1023.01
2019-04-01T11:21:04.897Z,1023.01
2019-04-01T11:22:03.901Z,1023.04
2019-04-01T11:23:04.944Z,1023.06
2019-04-01T11:24:03.310Z,1023
2019-04-01T11:25:03.333Z,1022.97
2019-04-01T11:26:03.347Z,1022.98
2019-04-01T11:28:03.389Z,1022.92
2019-04-01T11:29:04.229Z,1022.92
2019-04-01T11:30:03.458Z,1022.95
2019-04-01T11:31:03.483Z,1022.99
2019-04-01T11:32:03.505Z,1022.93
2019-04-01T11:33:03.497Z,1022.97
2019-04-01T11:34:03.544Z,1023
2019-04-01T11:35:03.607Z,1023
2019-04-01T11:36:03.578Z,1022.9
2019-04-01T11:37:03.589Z,1022.89
2019-04-01T11:38:03.600Z,1022.79
2019-04-01T11:39:04.862Z,1022.82
2019-04-01T11:40:03.684Z,1022.84
2019-04-01T11:41:03.685Z,1022.85
2019-04-01T11:42:03.731Z,1022.83
2019-04-01T11:44:03.742Z,1022.83
2019-04-01T11:45:05.676Z,1022.79
2019-04-01T11:46:03.786Z,1022.75
2019-04-01T11:47:03.797Z,1022.76
2019-04-01T11:48:03.867Z,1022.77
2019-04-01T11:49:03.846Z,1022.69
2019-04-01T11:50:03.887Z,1022.67
2019-04-01T11:51:03.878Z,1022.68
2019-04-01T11:52:03.909Z,1022.68
2019-04-01T11:53:03.907Z,1022.68
2019-04-01T11:54:03.923Z,1022.69
2019-04-01T11:55:06.379Z,1022.66
2019-04-01T11:56:03.973Z,1022.69
2019-04-01T11:57:03.985Z,1022.62
2019-04-01T11:58:04.009Z,1022.62
2019-04-01T12:00:04.062Z,1022.59
2019-04-01T12:01:04.068Z,1022.55
2019-04-01T12:02:04.091Z,1022.56
2019-04-01T12:03:04.110Z,1022.66
2019-04-01T12:04:04.228Z,1022.58
2019-04-01T12:05:04.151Z,1022.51
2019-04-01T12:06:04.168Z,1022.52
2019-04-01T12:07:04.193Z,1022.43
2019-04-01T12:08:04.210Z,1022.48
2019-04-01T12:09:04.234Z,1022.45
2019-04-01T12:10:07.269Z,1022.42
2019-04-01T12:11:04.275Z,1022.44
2019-04-01T12:12:04.291Z,1022.44
2019-04-01T12:13:04.315Z,1022.47
2019-04-01T12:15:04.355Z,1022.44
2019-04-01T12:16:04.371Z,1022.4
2019-04-01T12:17:04.391Z,1022.38
2019-04-01T12:18:04.413Z,1022.37
2019-04-01T12:19:04.436Z,1022.33
2019-04-01T12:20:04.463Z,1022.44
2019-04-01T12:21:04.474Z,1022.38
2019-04-01T12:22:04.497Z,1022.35
2019-04-01T12:23:04.512Z,1022.26
2019-04-01T12:24:04.537Z,1022.36
2019-04-01T12:25:04.553Z,1022.36
2019-04-01T12:26:14.719Z,1022.27
2019-04-01T12:27:04.597Z,1022.28
2019-04-01T12:28:04.614Z,1022.22
2019-04-01T12:29:04.638Z,1022.2
2019-04-01T12:30:04.686Z,1022.24
2019-04-01T12:31:04.679Z,1022.19
2019-04-01T12:32:04.694Z,1022.21
2019-04-01T12:33:04.721Z,1022.18
2019-04-01T12:34:04.739Z,1022.14
2019-04-01T12:35:04.758Z,1022.18
2019-04-01T12:36:04.791Z,1022.18
2019-04-01T12:37:04.796Z,1022.22
2019-04-01T12:38:04.819Z,1022.12
2019-04-01T12:39:04.835Z,1022.11
2019-04-01T12:40:04.862Z,1022.14
2019-04-01T12:41:04.875Z,1022.02
2019-04-01T12:42:04.894Z,1022.04
2019-04-01T12:43:04.919Z,1022.07
2019-04-01T12:44:04.942Z,1022.03
2019-04-01T12:45:04.956Z,1021.96
2019-04-01T12:47:04.994Z,1021.96
2019-04-01T12:48:05.020Z,1022.01
2019-04-01T12:49:05.038Z,1022.11
2019-04-01T12:50:05.067Z,1022